sensor_id;sensor_type;location;lat;lon;timestamp;P1;durP1;ratioP1;P2;durP2;ratioP2
5847;SDS011;8756;49.29324300;8.70599800;2022-12-07T00:01:28;19.63;;;10.53;;
5847;SDS011;8756;49.29324300;8.70599800;2022-12-07T00:03:59;19.20;;;11.57;;
5847;SDS011;8756;49.29324300;8.70599800;2022-12-07T00:06:38;21.90;;;9.50;;
5847;SDS011;8756;49.29324300;8.70599800;2022-12-07T00:09:07;20.27;;;11.40;;
5847;SDS011;8756;49.29324300;8.70599800;2022-12-07T00:11:37;20.30;;;11.20;;
5847;SDS011;8756;49.29324300;8.70599800;2022-12-07T00:14:05;20.47;;;12.00;;
5847;SDS011;8756;49.29324300;8.70599800;2022-12-07T00:16:34;20.80;;;10.73;;
5847;SDS011;8756;49.29324300;8.70599800;2022-12-07T00:19:02;20.10;;;11.80;;
5847;SDS011;8756;49.29324300;8.70599800;2022-12-07T00:21:30;20.87;;;11.77;;
5847;SDS011;8756;49.29324300;8.70599800;2022-12-07T00:23:58;19.70;;;11.17;;
5847;SDS011;8756;49.29324300;8.70599800;2022-12-07T00:26:33;18.90;;;10.93;;
5847;SDS011;8756;49.29324300;8.70599800;2022-12-07T00:29:03;18.20;;;11.37;;
5847;SDS011;8756;49.29324300;8.70599800;2022-12-07T00:31:37;18.27;;;11.00;;
5847;SDS011;8756;49.29324300;8.70599800;2022-12-07T00:34:11;20.40;;;10.97;;
5847;SDS011;8756;49.29324300;8.70599800;2022-12-07T00:36:40;22.30;;;11.67;;
5847;SDS011;8756;49.29324300;8.70599800;2022-12-07T00:39:06;21.40;;;12.13;;
5847;SDS011;8756;49.29324300;8.70599800;2022-12-07T00:41:32;20.97;;;10.13;;
5847;SDS011;8756;49.29324300;8.70599800;2022-12-07T00:43:58;18.63;;;10.70;;
5847;SDS011;8756;49.29324300;8.70599800;2022-12-07T00:46:24;17.90;;;11.37;;
5847;SDS011;8756;49.29324300;8.70599800;2022-12-07T00:48:51;18.00;;;10.10;;
5847;SDS011;8756;49.29324300;8.70599800;2022-12-07T00:51:18;20.40;;;9.93;;
5847;SDS011;8756;49.29324300;8.70599800;2022-12-07T00:53:47;20.40;;;11.27;;
5847;SDS011;8756;49.29324300;8.70599800;2022-12-07T00:56:14;20.37;;;10.97;;
5847;SDS011;8756;49.29324300;8.70599800;2022-12-07T00:59:10;22.70;;;10.17;;
5847;SDS011;8756;49.29324300;8.70599800;2022-12-07T01:01:41;21.70;;;12.80;;
5847;SDS011;8756;49.29324300;8.70599800;2022-12-07T01:04:07;20.63;;;11.33;;
5847;SDS011;8756;49.29324300;8.70599800;2022-12-07T01:06:33;21.70;;;11.10;;
5847;SDS011;8756;49.29324300;8.70599800;2022-12-07T01:08:59;22.90;;;12.20;;
5847;SDS011;8756;49.29324300;8.70599800;2022-12-07T01:11:27;26.53;;;12.17;;
5847;SDS011;8756;49.29324300;8.70599800;2022-12-07T01:13:55;22.47;;;12.20;;
5847;SDS011;8756;49.29324300;8.70599800;2022-12-07T01:16:24;19.10;;;11.50;;
5847;SDS011;8756;49.29324300;8.70599800;2022-12-07T01:18:52;20.47;;;11.63;;
5847;SDS011;8756;49.29324300;8.70599800;2022-12-07T01:21:24;21.77;;;12.60;;
5847;SDS011;8756;49.29324300;8.70599800;2022-12-07T01:23:53;19.87;;;12.00;;
5847;SDS011;8756;49.29324300;8.70599800;2022-12-07T01:26:20;23.40;;;11.23;;
5847;SDS011;8756;49.29324300;8.70599800;2022-12-07T01:28:47;21.80;;;12.60;;
5847;SDS011;8756;49.29324300;8.70599800;2022-12-07T01:31:14;25.27;;;12.80;;
5847;SDS011;8756;49.29324300;8.70599800;2022-12-07T01:33:44;27.67;;;12.90;;
5847;SDS011;8756;49.29324300;8.70599800;2022-12-07T01:36:16;21.67;;;12.47;;
5847;SDS011;8756;49.29324300;8.70599800;2022-12-07T01:38:44;23.43;;;12.50;;
5847;SDS011;8756;49.29324300;8.70599800;2022-12-07T01:41:12;24.53;;;13.37;;
5847;SDS011;8756;49.29324300;8.70599800;2022-12-07T01:47:01;25.00;;;12.70;;
5847;SDS011;8756;49.29324300;8.70599800;2022-12-07T01:49:33;27.00;;;13.40;;
5847;SDS011;8756;49.29324300;8.70599800;2022-12-07T01:55:03;24.83;;;13.20;;
5847;SDS011;8756;49.29324300;8.70599800;2022-12-07T01:57:38;20.03;;;11.83;;
5847;SDS011;8756;49.29324300;8.70599800;2022-12-07T02:00:07;22.53;;;13.10;;
5847;SDS011;8756;49.29324300;8.70599800;2022-12-07T02:02:36;21.00;;;11.80;;
5847;SDS011;8756;49.29324300;8.70599800;2022-12-07T02:05:08;19.87;;;11.87;;
5847;SDS011;8756;49.29324300;8.70599800;2022-12-07T02:07:34;22.40;;;11.97;;
5847;SDS011;8756;49.29324300;8.70599800;2022-12-07T02:10:17;22.50;;;11.03;;
5847;SDS011;8756;49.29324300;8.70599800;2022-12-07T02:12:53;17.97;;;10.97;;
5847;SDS011;8756;49.29324300;8.70599800;2022-12-07T02:32:16;20.47;;;12.30;;
5847;SDS011;8756;49.29324300;8.70599800;2022-12-07T02:40:06;23.33;;;13.23;;
5847;SDS011;8756;49.29324300;8.70599800;2022-12-07T02:42:43;21.23;;;11.10;;
5847;SDS011;8756;49.29324300;8.70599800;2022-12-07T02:45:34;21.00;;;12.70;;
5847;SDS011;8756;49.29324300;8.70599800;2022-12-07T02:48:04;23.90;;;13.40;;
5847;SDS011;8756;49.29324300;8.70599800;2022-12-07T02:50:32;24.57;;;12.37;;
5847;SDS011;8756;49.29324300;8.70599800;2022-12-07T02:52:58;25.37;;;12.60;;
5847;SDS011;8756;49.29324300;8.70599800;2022-12-07T02:55:34;22.47;;;13.30;;
5847;SDS011;8756;49.29324300;8.70599800;2022-12-07T02:58:16;24.67;;;13.77;;
5847;SDS011;8756;49.29324300;8.70599800;2022-12-07T03:00:52;19.60;;;12.40;;
5847;SDS011;8756;49.29324300;8.70599800;2022-12-07T03:03:30;23.00;;;13.80;;
5847;SDS011;8756;49.29324300;8.70599800;2022-12-07T03:06:12;23.80;;;13.60;;
5847;SDS011;8756;49.29324300;8.70599800;2022-12-07T03:09:35;27.60;;;14.57;;
5847;SDS011;8756;49.29324300;8.70599800;2022-12-07T03:11:59;23.27;;;13.07;;
5847;SDS011;8756;49.29324300;8.70599800;2022-12-07T03:14:34;22.80;;;14.13;;
5847;SDS011;8756;49.29324300;8.70599800;2022-12-07T03:17:08;23.07;;;13.47;;
5847;SDS011;8756;49.29324300;8.70599800;2022-12-07T03:19:42;27.00;;;14.90;;
5847;SDS011;8756;49.29324300;8.70599800;2022-12-07T03:22:11;27.83;;;15.00;;
5847;SDS011;8756;49.29324300;8.70599800;2022-12-07T03:24:43;25.43;;;14.70;;
5847;SDS011;8756;49.29324300;8.70599800;2022-12-07T03:27:21;21.20;;;13.53;;
5847;SDS011;8756;49.29324300;8.70599800;2022-12-07T03:30:00;23.67;;;13.90;;
5847;SDS011;8756;49.29324300;8.70599800;2022-12-07T03:32:35;23.00;;;14.10;;
5847;SDS011;8756;49.29324300;8.70599800;2022-12-07T03:37:44;22.10;;;13.17;;
5847;SDS011;8756;49.29324300;8.70599800;2022-12-07T03:43:21;24.33;;;13.00;;
5847;SDS011;8756;49.29324300;8.70599800;2022-12-07T03:48:46;23.10;;;12.73;;
5847;SDS011;8756;49.29324300;8.70599800;2022-12-07T03:51:39;20.87;;;12.53;;
5847;SDS011;8756;49.29324300;8.70599800;2022-12-07T03:54:21;25.30;;;13.00;;
5847;SDS011;8756;49.29324300;8.70599800;2022-12-07T03:56:58;22.77;;;13.10;;
5847;SDS011;8756;49.29324300;8.70599800;2022-12-07T03:59:26;24.77;;;14.47;;
5847;SDS011;8756;49.29324300;8.70599800;2022-12-07T04:01:55;24.30;;;13.10;;
5847;SDS011;8756;49.29324300;8.70599800;2022-12-07T04:04:27;23.30;;;13.83;;
5847;SDS011;8756;49.29324300;8.70599800;2022-12-07T04:06:53;24.80;;;13.47;;
5847;SDS011;8756;49.29324300;8.70599800;2022-12-07T04:09:19;22.20;;;13.70;;
5847;SDS011;8756;49.29324300;8.70599800;2022-12-07T04:11:45;25.30;;;13.87;;
5847;SDS011;8756;49.29324300;8.70599800;2022-12-07T04:14:11;26.53;;;14.20;;
5847;SDS011;8756;49.29324300;8.70599800;2022-12-07T04:16:53;27.47;;;14.40;;
5847;SDS011;8756;49.29324300;8.70599800;2022-12-07T04:19:23;29.93;;;13.40;;
5847;SDS011;8756;49.29324300;8.70599800;2022-12-07T04:21:55;26.83;;;13.87;;
5847;SDS011;8756;49.29324300;8.70599800;2022-12-07T04:24:22;23.17;;;13.73;;
5847;SDS011;8756;49.29324300;8.70599800;2022-12-07T04:26:49;25.03;;;13.53;;
5847;SDS011;8756;49.29324300;8.70599800;2022-12-07T04:29:15;26.63;;;14.67;;
5847;SDS011;8756;49.29324300;8.70599800;2022-12-07T04:31:42;27.40;;;15.30;;
5847;SDS011;8756;49.29324300;8.70599800;2022-12-07T04:34:08;26.40;;;15.40;;
5847;SDS011;8756;49.29324300;8.70599800;2022-12-07T04:36:34;24.47;;;14.60;;
5847;SDS011;8756;49.29324300;8.70599800;2022-12-07T04:39:01;28.97;;;15.63;;
5847;SDS011;8756;49.29324300;8.70599800;2022-12-07T04:41:28;30.90;;;16.40;;
5847;SDS011;8756;49.29324300;8.70599800;2022-12-07T04:46:22;31.20;;;16.03;;
5847;SDS011;8756;49.29324300;8.70599800;2022-12-07T04:48:50;28.10;;;16.00;;
5847;SDS011;8756;49.29324300;8.70599800;2022-12-07T04:51:18;27.90;;;17.17;;
5847;SDS011;8756;49.29324300;8.70599800;2022-12-07T04:53:50;27.53;;;15.90;;
5847;SDS011;8756;49.29324300;8.70599800;2022-12-07T04:56:16;29.67;;;17.37;;
5847;SDS011;8756;49.29324300;8.70599800;2022-12-07T04:58:43;26.87;;;16.80;;
5847;SDS011;8756;49.29324300;8.70599800;2022-12-07T05:01:11;27.00;;;14.77;;
5847;SDS011;8756;49.29324300;8.70599800;2022-12-07T05:03:37;29.23;;;16.00;;
5847;SDS011;8756;49.29324300;8.70599800;2022-12-07T05:06:03;32.10;;;16.27;;
5847;SDS011;8756;49.29324300;8.70599800;2022-12-07T05:08:30;30.80;;;15.60;;
5847;SDS011;8756;49.29324300;8.70599800;2022-12-07T05:10:58;26.80;;;14.73;;
5847;SDS011;8756;49.29324300;8.70599800;2022-12-07T05:13:24;26.90;;;14.33;;
5847;SDS011;8756;49.29324300;8.70599800;2022-12-07T05:15:50;28.13;;;15.93;;
5847;SDS011;8756;49.29324300;8.70599800;2022-12-07T05:18:16;32.30;;;17.27;;
5847;SDS011;8756;49.29324300;8.70599800;2022-12-07T05:20:42;26.50;;;15.37;;
5847;SDS011;8756;49.29324300;8.70599800;2022-12-07T05:23:09;24.50;;;15.87;;
5847;SDS011;8756;49.29324300;8.70599800;2022-12-07T05:25:35;26.77;;;15.50;;
5847;SDS011;8756;49.29324300;8.70599800;2022-12-07T05:28:01;25.50;;;13.90;;
5847;SDS011;8756;49.29324300;8.70599800;2022-12-07T05:30:27;28.00;;;15.07;;
5847;SDS011;8756;49.29324300;8.70599800;2022-12-07T05:32:53;28.13;;;16.13;;
5847;SDS011;8756;49.29324300;8.70599800;2022-12-07T05:35:19;27.30;;;16.63;;
5847;SDS011;8756;49.29324300;8.70599800;2022-12-07T05:37:45;28.80;;;15.97;;
5847;SDS011;8756;49.29324300;8.70599800;2022-12-07T05:40:11;27.00;;;15.33;;
5847;SDS011;8756;49.29324300;8.70599800;2022-12-07T05:42:39;29.80;;;16.27;;
5847;SDS011;8756;49.29324300;8.70599800;2022-12-07T05:45:05;27.30;;;15.83;;
5847;SDS011;8756;49.29324300;8.70599800;2022-12-07T05:47:32;25.37;;;15.03;;
5847;SDS011;8756;49.29324300;8.70599800;2022-12-07T05:49:57;25.50;;;16.00;;
5847;SDS011;8756;49.29324300;8.70599800;2022-12-07T05:52:23;28.17;;;16.80;;
5847;SDS011;8756;49.29324300;8.70599800;2022-12-07T05:54:49;28.40;;;17.30;;
5847;SDS011;8756;49.29324300;8.70599800;2022-12-07T05:57:15;27.57;;;15.13;;
5847;SDS011;8756;49.29324300;8.70599800;2022-12-07T05:59:41;26.90;;;15.67;;
5847;SDS011;8756;49.29324300;8.70599800;2022-12-07T06:02:08;26.17;;;16.27;;
5847;SDS011;8756;49.29324300;8.70599800;2022-12-07T06:04:38;26.17;;;15.13;;
5847;SDS011;8756;49.29324300;8.70599800;2022-12-07T06:07:06;28.67;;;14.80;;
5847;SDS011;8756;49.29324300;8.70599800;2022-12-07T06:09:33;24.53;;;15.47;;
5847;SDS011;8756;49.29324300;8.70599800;2022-12-07T06:11:59;28.40;;;16.00;;
5847;SDS011;8756;49.29324300;8.70599800;2022-12-07T06:14:44;26.20;;;15.20;;
5847;SDS011;8756;49.29324300;8.70599800;2022-12-07T06:17:11;25.33;;;14.80;;
5847;SDS011;8756;49.29324300;8.70599800;2022-12-07T06:19:37;27.60;;;16.00;;
5847;SDS011;8756;49.29324300;8.70599800;2022-12-07T06:22:04;27.47;;;16.70;;
5847;SDS011;8756;49.29324300;8.70599800;2022-12-07T06:24:30;28.50;;;16.20;;
5847;SDS011;8756;49.29324300;8.70599800;2022-12-07T06:26:57;28.10;;;15.60;;
5847;SDS011;8756;49.29324300;8.70599800;2022-12-07T06:29:23;25.20;;;15.83;;
5847;SDS011;8756;49.29324300;8.70599800;2022-12-07T06:31:49;29.47;;;16.20;;
5847;SDS011;8756;49.29324300;8.70599800;2022-12-07T06:34:16;28.20;;;17.90;;
5847;SDS011;8756;49.29324300;8.70599800;2022-12-07T06:36:44;29.43;;;18.37;;
5847;SDS011;8756;49.29324300;8.70599800;2022-12-07T06:39:16;25.60;;;15.27;;
5847;SDS011;8756;49.29324300;8.70599800;2022-12-07T06:41:49;28.43;;;18.30;;
5847;SDS011;8756;49.29324300;8.70599800;2022-12-07T06:44:16;29.30;;;18.40;;
5847;SDS011;8756;49.29324300;8.70599800;2022-12-07T06:46:43;29.47;;;17.70;;
5847;SDS011;8756;49.29324300;8.70599800;2022-12-07T06:49:09;31.63;;;15.67;;
5847;SDS011;8756;49.29324300;8.70599800;2022-12-07T06:51:35;26.83;;;15.43;;
5847;SDS011;8756;49.29324300;8.70599800;2022-12-07T06:54:05;28.00;;;16.00;;
5847;SDS011;8756;49.29324300;8.70599800;2022-12-07T06:56:35;27.00;;;15.93;;
5847;SDS011;8756;49.29324300;8.70599800;2022-12-07T06:59:02;31.23;;;15.57;;
5847;SDS011;8756;49.29324300;8.70599800;2022-12-07T07:01:30;26.20;;;14.17;;
5847;SDS011;8756;49.29324300;8.70599800;2022-12-07T07:03:56;28.10;;;16.93;;
5847;SDS011;8756;49.29324300;8.70599800;2022-12-07T07:06:21;26.17;;;15.27;;
5847;SDS011;8756;49.29324300;8.70599800;2022-12-07T07:08:47;28.80;;;16.40;;
5847;SDS011;8756;49.29324300;8.70599800;2022-12-07T07:11:13;27.70;;;16.27;;
5847;SDS011;8756;49.29324300;8.70599800;2022-12-07T07:13:38;28.17;;;14.93;;
5847;SDS011;8756;49.29324300;8.70599800;2022-12-07T07:16:05;33.53;;;15.70;;
5847;SDS011;8756;49.29324300;8.70599800;2022-12-07T07:18:35;30.43;;;15.67;;
5847;SDS011;8756;49.29324300;8.70599800;2022-12-07T07:21:01;29.80;;;15.57;;
5847;SDS011;8756;49.29324300;8.70599800;2022-12-07T07:23:28;32.87;;;16.40;;
5847;SDS011;8756;49.29324300;8.70599800;2022-12-07T07:25:53;27.60;;;16.47;;
5847;SDS011;8756;49.29324300;8.70599800;2022-12-07T07:28:19;31.87;;;18.10;;
5847;SDS011;8756;49.29324300;8.70599800;2022-12-07T07:30:45;29.57;;;16.47;;
5847;SDS011;8756;49.29324300;8.70599800;2022-12-07T07:33:11;31.23;;;16.10;;
5847;SDS011;8756;49.29324300;8.70599800;2022-12-07T07:35:37;26.97;;;15.60;;
5847;SDS011;8756;49.29324300;8.70599800;2022-12-07T07:38:03;30.40;;;16.80;;
5847;SDS011;8756;49.29324300;8.70599800;2022-12-07T07:40:30;28.23;;;15.43;;
5847;SDS011;8756;49.29324300;8.70599800;2022-12-07T07:42:56;28.83;;;16.00;;
5847;SDS011;8756;49.29324300;8.70599800;2022-12-07T07:45:22;28.30;;;15.73;;
5847;SDS011;8756;49.29324300;8.70599800;2022-12-07T07:47:51;30.03;;;16.30;;
5847;SDS011;8756;49.29324300;8.70599800;2022-12-07T07:50:17;28.07;;;16.13;;
5847;SDS011;8756;49.29324300;8.70599800;2022-12-07T07:52:43;27.20;;;14.70;;
5847;SDS011;8756;49.29324300;8.70599800;2022-12-07T07:55:09;36.00;;;18.10;;
5847;SDS011;8756;49.29324300;8.70599800;2022-12-07T07:57:36;30.20;;;15.63;;
5847;SDS011;8756;49.29324300;8.70599800;2022-12-07T08:00:03;31.27;;;17.03;;
5847;SDS011;8756;49.29324300;8.70599800;2022-12-07T08:02:34;28.17;;;16.53;;
5847;SDS011;8756;49.29324300;8.70599800;2022-12-07T08:05:00;29.77;;;16.73;;
5847;SDS011;8756;49.29324300;8.70599800;2022-12-07T08:07:26;28.73;;;16.03;;
5847;SDS011;8756;49.29324300;8.70599800;2022-12-07T08:09:53;26.60;;;14.53;;
5847;SDS011;8756;49.29324300;8.70599800;2022-12-07T08:12:19;30.13;;;16.60;;
5847;SDS011;8756;49.29324300;8.70599800;2022-12-07T08:14:45;29.43;;;15.80;;
5847;SDS011;8756;49.29324300;8.70599800;2022-12-07T08:17:10;26.80;;;16.03;;
5847;SDS011;8756;49.29324300;8.70599800;2022-12-07T08:19:37;27.33;;;16.17;;
5847;SDS011;8756;49.29324300;8.70599800;2022-12-07T08:22:03;33.20;;;17.20;;
5847;SDS011;8756;49.29324300;8.70599800;2022-12-07T08:24:29;27.83;;;16.80;;
5847;SDS011;8756;49.29324300;8.70599800;2022-12-07T08:26:58;33.13;;;17.67;;
5847;SDS011;8756;49.29324300;8.70599800;2022-12-07T08:29:24;28.97;;;16.10;;
5847;SDS011;8756;49.29324300;8.70599800;2022-12-07T08:31:49;29.00;;;15.67;;
5847;SDS011;8756;49.29324300;8.70599800;2022-12-07T08:34:15;29.90;;;17.73;;
5847;SDS011;8756;49.29324300;8.70599800;2022-12-07T08:36:41;30.70;;;17.53;;
5847;SDS011;8756;49.29324300;8.70599800;2022-12-07T08:39:06;27.43;;;16.20;;
5847;SDS011;8756;49.29324300;8.70599800;2022-12-07T08:41:32;29.03;;;16.03;;
5847;SDS011;8756;49.29324300;8.70599800;2022-12-07T08:43:58;30.90;;;16.60;;
5847;SDS011;8756;49.29324300;8.70599800;2022-12-07T08:46:46;31.00;;;16.50;;
5847;SDS011;8756;49.29324300;8.70599800;2022-12-07T08:49:26;29.40;;;15.83;;
5847;SDS011;8756;49.29324300;8.70599800;2022-12-07T08:52:05;28.57;;;16.10;;
5847;SDS011;8756;49.29324300;8.70599800;2022-12-07T08:54:31;34.70;;;16.20;;
5847;SDS011;8756;49.29324300;8.70599800;2022-12-07T08:57:01;29.47;;;16.50;;
5847;SDS011;8756;49.29324300;8.70599800;2022-12-07T08:59:27;30.13;;;15.93;;
5847;SDS011;8756;49.29324300;8.70599800;2022-12-07T09:01:53;28.40;;;14.97;;
5847;SDS011;8756;49.29324300;8.70599800;2022-12-07T09:04:19;29.67;;;16.60;;
5847;SDS011;8756;49.29324300;8.70599800;2022-12-07T09:06:45;30.07;;;15.70;;
5847;SDS011;8756;49.29324300;8.70599800;2022-12-07T09:09:12;28.87;;;15.13;;
5847;SDS011;8756;49.29324300;8.70599800;2022-12-07T09:11:39;31.70;;;15.40;;
5847;SDS011;8756;49.29324300;8.70599800;2022-12-07T09:14:05;29.10;;;15.57;;
5847;SDS011;8756;49.29324300;8.70599800;2022-12-07T09:16:31;26.50;;;15.30;;
5847;SDS011;8756;49.29324300;8.70599800;2022-12-07T09:18:56;27.30;;;15.63;;
5847;SDS011;8756;49.29324300;8.70599800;2022-12-07T09:21:22;29.87;;;16.50;;
5847;SDS011;8756;49.29324300;8.70599800;2022-12-07T09:23:48;29.13;;;16.20;;
5847;SDS011;8756;49.29324300;8.70599800;2022-12-07T09:26:14;27.90;;;14.90;;
5847;SDS011;8756;49.29324300;8.70599800;2022-12-07T09:28:39;29.90;;;16.40;;
5847;SDS011;8756;49.29324300;8.70599800;2022-12-07T09:31:05;28.20;;;14.83;;
5847;SDS011;8756;49.29324300;8.70599800;2022-12-07T09:33:31;28.90;;;15.77;;
5847;SDS011;8756;49.29324300;8.70599800;2022-12-07T09:35:57;26.10;;;14.87;;
5847;SDS011;8756;49.29324300;8.70599800;2022-12-07T09:38:23;32.73;;;16.03;;
5847;SDS011;8756;49.29324300;8.70599800;2022-12-07T09:40:51;27.23;;;15.07;;
5847;SDS011;8756;49.29324300;8.70599800;2022-12-07T09:43:20;27.90;;;15.60;;
5847;SDS011;8756;49.29324300;8.70599800;2022-12-07T09:45:50;27.67;;;14.27;;
5847;SDS011;8756;49.29324300;8.70599800;2022-12-07T09:50:55;28.90;;;13.53;;
5847;SDS011;8756;49.29324300;8.70599800;2022-12-07T09:53:25;27.57;;;14.17;;
5847;SDS011;8756;49.29324300;8.70599800;2022-12-07T09:55:58;27.17;;;14.07;;
5847;SDS011;8756;49.29324300;8.70599800;2022-12-07T09:58:26;22.13;;;13.83;;
5847;SDS011;8756;49.29324300;8.70599800;2022-12-07T10:00:58;23.40;;;13.13;;
5847;SDS011;8756;49.29324300;8.70599800;2022-12-07T10:03:30;27.80;;;14.93;;
5847;SDS011;8756;49.29324300;8.70599800;2022-12-07T10:05:56;28.93;;;13.67;;
5847;SDS011;8756;49.29324300;8.70599800;2022-12-07T10:08:22;27.90;;;14.90;;
5847;SDS011;8756;49.29324300;8.70599800;2022-12-07T10:10:51;27.50;;;15.63;;
5847;SDS011;8756;49.29324300;8.70599800;2022-12-07T10:13:21;26.73;;;15.20;;
5847;SDS011;8756;49.29324300;8.70599800;2022-12-07T10:16:03;25.23;;;14.33;;
5847;SDS011;8756;49.29324300;8.70599800;2022-12-07T10:18:31;27.17;;;14.40;;
5847;SDS011;8756;49.29324300;8.70599800;2022-12-07T10:24:02;31.23;;;15.67;;
5847;SDS011;8756;49.29324300;8.70599800;2022-12-07T10:37:49;35.93;;;17.60;;
5847;SDS011;8756;49.29324300;8.70599800;2022-12-07T10:40:24;28.03;;;15.63;;
5847;SDS011;8756;49.29324300;8.70599800;2022-12-07T10:43:05;27.83;;;15.03;;
5847;SDS011;8756;49.29324300;8.70599800;2022-12-07T10:48:34;23.60;;;13.87;;
5847;SDS011;8756;49.29324300;8.70599800;2022-12-07T10:57:27;27.33;;;15.50;;
5847;SDS011;8756;49.29324300;8.70599800;2022-12-07T11:00:06;25.87;;;14.60;;
5847;SDS011;8756;49.29324300;8.70599800;2022-12-07T11:10:55;24.50;;;13.80;;
5847;SDS011;8756;49.29324300;8.70599800;2022-12-07T11:22:13;29.20;;;14.00;;
5847;SDS011;8756;49.29324300;8.70599800;2022-12-07T11:30:34;24.60;;;13.73;;
5847;SDS011;8756;49.29324300;8.70599800;2022-12-07T11:39:04;25.07;;;15.03;;
5847;SDS011;8756;49.29324300;8.70599800;2022-12-07T11:41:38;27.20;;;13.80;;
5847;SDS011;8756;49.29324300;8.70599800;2022-12-07T11:47:04;23.50;;;12.80;;
5847;SDS011;8756;49.29324300;8.70599800;2022-12-07T12:04:05;28.27;;;14.50;;
5847;SDS011;8756;49.29324300;8.70599800;2022-12-07T12:06:34;27.00;;;14.07;;
5847;SDS011;8756;49.29324300;8.70599800;2022-12-07T12:09:06;28.60;;;14.67;;
5847;SDS011;8756;49.29324300;8.70599800;2022-12-07T12:14:37;30.07;;;15.67;;
5847;SDS011;8756;49.29324300;8.70599800;2022-12-07T12:17:34;24.50;;;14.17;;
5847;SDS011;8756;49.29324300;8.70599800;2022-12-07T12:25:50;27.40;;;14.10;;
5847;SDS011;8756;49.29324300;8.70599800;2022-12-07T12:31:14;27.10;;;13.93;;
5847;SDS011;8756;49.29324300;8.70599800;2022-12-07T12:33:52;24.30;;;13.53;;
5847;SDS011;8756;49.29324300;8.70599800;2022-12-07T12:47:00;24.70;;;14.50;;
5847;SDS011;8756;49.29324300;8.70599800;2022-12-07T12:50:19;25.30;;;12.30;;
5847;SDS011;8756;49.29324300;8.70599800;2022-12-07T12:52:51;23.13;;;11.73;;
5847;SDS011;8756;49.29324300;8.70599800;2022-12-07T13:00:49;25.90;;;14.77;;
5847;SDS011;8756;49.29324300;8.70599800;2022-12-07T13:03:57;24.10;;;14.00;;
5847;SDS011;8756;49.29324300;8.70599800;2022-12-07T13:08:52;24.47;;;12.97;;
5847;SDS011;8756;49.29324300;8.70599800;2022-12-07T13:11:32;27.10;;;12.93;;
5847;SDS011;8756;49.29324300;8.70599800;2022-12-07T13:17:10;23.60;;;14.33;;
5847;SDS011;8756;49.29324300;8.70599800;2022-12-07T13:19:57;27.10;;;14.67;;
5847;SDS011;8756;49.29324300;8.70599800;2022-12-07T13:25:09;24.60;;;15.10;;
5847;SDS011;8756;49.29324300;8.70599800;2022-12-07T13:27:43;27.97;;;14.83;;
5847;SDS011;8756;49.29324300;8.70599800;2022-12-07T13:30:16;24.17;;;14.10;;
5847;SDS011;8756;49.29324300;8.70599800;2022-12-07T13:32:51;32.90;;;16.60;;
5847;SDS011;8756;49.29324300;8.70599800;2022-12-07T13:38:16;24.20;;;13.43;;
5847;SDS011;8756;49.29324300;8.70599800;2022-12-07T13:41:01;25.70;;;14.37;;
5847;SDS011;8756;49.29324300;8.70599800;2022-12-07T13:43:28;24.37;;;14.03;;
5847;SDS011;8756;49.29324300;8.70599800;2022-12-07T13:45:57;24.97;;;12.37;;
5847;SDS011;8756;49.29324300;8.70599800;2022-12-07T13:48:43;22.30;;;11.80;;
5847;SDS011;8756;49.29324300;8.70599800;2022-12-07T13:51:17;27.90;;;13.80;;
5847;SDS011;8756;49.29324300;8.70599800;2022-12-07T13:53:48;25.73;;;15.37;;
5847;SDS011;8756;49.29324300;8.70599800;2022-12-07T13:56:34;24.90;;;13.27;;
5847;SDS011;8756;49.29324300;8.70599800;2022-12-07T13:59:01;27.17;;;14.40;;
5847;SDS011;8756;49.29324300;8.70599800;2022-12-07T14:01:30;26.80;;;13.77;;
5847;SDS011;8756;49.29324300;8.70599800;2022-12-07T14:04:16;27.60;;;14.20;;
5847;SDS011;8756;49.29324300;8.70599800;2022-12-07T14:06:58;23.23;;;13.60;;
5847;SDS011;8756;49.29324300;8.70599800;2022-12-07T14:09:27;24.33;;;13.80;;
5847;SDS011;8756;49.29324300;8.70599800;2022-12-07T14:11:55;27.57;;;14.00;;
5847;SDS011;8756;49.29324300;8.70599800;2022-12-07T14:14:23;25.07;;;13.77;;
5847;SDS011;8756;49.29324300;8.70599800;2022-12-07T14:17:00;25.13;;;14.40;;
5847;SDS011;8756;49.29324300;8.70599800;2022-12-07T14:19:40;24.80;;;13.40;;
5847;SDS011;8756;49.29324300;8.70599800;2022-12-07T14:22:36;24.97;;;13.73;;
5847;SDS011;8756;49.29324300;8.70599800;2022-12-07T14:25:14;25.60;;;13.07;;
5847;SDS011;8756;49.29324300;8.70599800;2022-12-07T14:27:50;24.13;;;13.90;;
5847;SDS011;8756;49.29324300;8.70599800;2022-12-07T14:30:22;24.23;;;13.70;;
5847;SDS011;8756;49.29324300;8.70599800;2022-12-07T14:32:54;22.50;;;13.03;;
5847;SDS011;8756;49.29324300;8.70599800;2022-12-07T14:35:25;22.10;;;13.63;;
5847;SDS011;8756;49.29324300;8.70599800;2022-12-07T14:37:52;22.80;;;13.50;;
5847;SDS011;8756;49.29324300;8.70599800;2022-12-07T14:40:19;26.27;;;13.23;;
5847;SDS011;8756;49.29324300;8.70599800;2022-12-07T14:42:51;30.73;;;14.50;;
5847;SDS011;8756;49.29324300;8.70599800;2022-12-07T14:45:27;25.70;;;13.87;;
5847;SDS011;8756;49.29324300;8.70599800;2022-12-07T14:47:53;22.70;;;13.33;;
5847;SDS011;8756;49.29324300;8.70599800;2022-12-07T14:50:19;27.60;;;13.57;;
5847;SDS011;8756;49.29324300;8.70599800;2022-12-07T14:52:51;25.43;;;14.40;;
5847;SDS011;8756;49.29324300;8.70599800;2022-12-07T14:57:52;26.67;;;13.37;;
5847;SDS011;8756;49.29324300;8.70599800;2022-12-07T15:00:19;22.80;;;12.90;;
5847;SDS011;8756;49.29324300;8.70599800;2022-12-07T15:02:50;23.87;;;12.87;;
5847;SDS011;8756;49.29324300;8.70599800;2022-12-07T15:05:16;24.10;;;13.17;;
5847;SDS011;8756;49.29324300;8.70599800;2022-12-07T15:07:43;24.10;;;13.57;;
5847;SDS011;8756;49.29324300;8.70599800;2022-12-07T15:10:18;25.40;;;14.00;;
5847;SDS011;8756;49.29324300;8.70599800;2022-12-07T15:13:00;25.50;;;14.07;;
5847;SDS011;8756;49.29324300;8.70599800;2022-12-07T15:15:46;23.80;;;12.83;;
5847;SDS011;8756;49.29324300;8.70599800;2022-12-07T15:18:13;26.40;;;13.00;;
5847;SDS011;8756;49.29324300;8.70599800;2022-12-07T15:20:40;24.03;;;13.67;;
5847;SDS011;8756;49.29324300;8.70599800;2022-12-07T15:23:06;24.30;;;13.00;;
5847;SDS011;8756;49.29324300;8.70599800;2022-12-07T15:25:32;27.37;;;14.47;;
5847;SDS011;8756;49.29324300;8.70599800;2022-12-07T15:27:58;26.27;;;14.27;;
5847;SDS011;8756;49.29324300;8.70599800;2022-12-07T15:30:23;28.33;;;14.50;;
5847;SDS011;8756;49.29324300;8.70599800;2022-12-07T15:32:49;28.70;;;13.90;;
5847;SDS011;8756;49.29324300;8.70599800;2022-12-07T15:35:19;25.03;;;13.27;;
5847;SDS011;8756;49.29324300;8.70599800;2022-12-07T15:37:45;24.70;;;14.30;;
5847;SDS011;8756;49.29324300;8.70599800;2022-12-07T15:40:11;25.47;;;13.13;;